createdAt,value
2023-04-16T07:26:30.729Z,12.88
2023-04-16T07:29:01.373Z,13.05
2023-04-16T07:31:29.982Z,12.83
2023-04-16T07:47:53.819Z,13.35
2023-04-16T07:50:26.884Z,13.66
2023-04-16T07:52:59.952Z,13.62
2023-04-16T07:55:30.996Z,13.71
2023-04-16T07:58:01.290Z,13.90
2023-04-16T08:00:34.759Z,13.84
2023-04-16T08:03:06.709Z,14.18
2023-04-16T08:05:35.251Z,14.37
2023-04-16T08:08:06.215Z,14.15
2023-04-16T08:10:37.055Z,13.99
2023-04-16T08:13:13.385Z,14.00
2023-04-16T08:15:42.185Z,14.40
2023-04-16T08:18:13.190Z,14.42
2023-04-16T08:20:43.722Z,14.52
2023-04-16T08:23:15.388Z,14.39
2023-04-16T08:25:50.100Z,14.53
2023-04-16T08:28:27.192Z,14.45
2023-04-16T08:31:01.547Z,14.59
2023-04-16T08:33:32.629Z,14.79
2023-04-16T08:36:00.500Z,14.48
2023-04-16T08:38:36.948Z,14.71
2023-04-16T08:41:10.992Z,14.72
2023-04-16T08:43:40.461Z,14.93
2023-04-16T08:46:13.042Z,14.62
2023-04-16T08:48:41.825Z,14.41
2023-04-16T08:51:11.568Z,14.71
2023-04-16T08:54:06.799Z,14.63
2023-04-16T08:56:37.813Z,14.79
2023-04-16T08:59:13.393Z,14.97
2023-04-16T09:01:42.998Z,15.01
2023-04-16T09:04:17.571Z,15.12
2023-04-16T09:06:47.082Z,15.23
2023-04-16T09:09:15.389Z,15.33
2023-04-16T09:11:44.409Z,15.53
2023-04-16T09:14:12.729Z,15.27
2023-04-16T09:16:50.028Z,15.36
2023-04-16T09:19:22.662Z,15.61
2023-04-16T09:22:00.139Z,15.64
2023-04-16T09:24:32.622Z,15.65
2023-04-16T09:27:03.079Z,15.80
2023-04-16T09:29:36.530Z,15.87
2023-04-16T09:32:15.264Z,15.89
2023-04-16T09:35:05.200Z,16.07
2023-04-16T09:37:40.342Z,15.86
2023-04-16T09:40:08.618Z,15.71
2023-04-16T09:42:37.396Z,15.96
2023-04-16T09:45:14.284Z,16.11
2023-04-16T09:47:44.375Z,15.97
2023-04-16T09:50:35.486Z,16.19
2023-04-16T09:53:04.034Z,16.05
2023-04-16T09:55:31.826Z,16.40
2023-04-16T09:58:03.499Z,16.34
2023-04-16T10:00:32.269Z,16.23
2023-04-16T10:03:08.612Z,16.18
2023-04-16T10:05:37.182Z,15.88
2023-04-16T10:08:13.179Z,16.30
2023-04-16T10:10:43.155Z,16.60
2023-04-16T10:13:18.100Z,16.77
2023-04-16T10:15:49.580Z,16.73
2023-04-16T10:18:18.590Z,16.67
2023-04-16T10:20:46.377Z,16.63
2023-04-16T10:23:15.283Z,16.92
2023-04-16T10:25:43.439Z,16.73
2023-04-16T10:28:11.522Z,16.85
2023-04-16T10:30:42.679Z,16.71
2023-04-16T10:33:10.634Z,16.71
2023-04-16T10:35:40.755Z,16.93
2023-04-16T10:38:28.854Z,17.24
2023-04-16T10:41:04.997Z,16.96
2023-04-16T10:43:34.371Z,16.83
2023-04-16T10:46:22.940Z,17.03
2023-04-16T10:48:56.002Z,17.42
2023-04-16T10:52:20.474Z,16.99
2023-04-16T10:54:49.130Z,16.88
2023-04-16T10:57:18.020Z,17.04
2023-04-16T10:59:46.415Z,17.35
2023-04-16T11:02:16.095Z,17.22
2023-04-16T11:05:08.910Z,17.51
2023-04-16T11:07:39.683Z,17.67
2023-04-16T11:10:13.513Z,18.12
2023-04-16T11:12:51.333Z,18.32
2023-04-16T11:15:19.942Z,18.08
2023-04-16T11:17:52.008Z,17.78
2023-04-16T11:20:38.559Z,18.07
2023-04-16T11:23:08.713Z,18.01
2023-04-16T11:25:37.392Z,18.45
2023-04-16T11:28:05.895Z,18.48
2023-04-16T11:30:36.190Z,17.93
2023-04-16T11:33:11.758Z,17.91
2023-04-16T11:35:41.843Z,18.05
2023-04-16T11:38:09.863Z,17.80
2023-04-16T11:40:38.874Z,17.90
2023-04-16T11:43:18.097Z,18.00
2023-04-16T11:46:16.570Z,17.98
2023-04-16T11:48:54.032Z,17.99
2023-04-16T11:51:23.807Z,18.16
2023-04-16T11:53:55.777Z,18.33
2023-04-16T11:56:30.329Z,18.30
2023-04-16T11:59:14.564Z,18.22
2023-04-16T12:01:45.971Z,17.76
2023-04-16T12:04:16.505Z,17.78
2023-04-16T12:07:11.924Z,17.57
2023-04-16T12:09:44.810Z,17.97
2023-04-16T12:12:25.894Z,18.00
2023-04-16T12:14:54.547Z,18.43
2023-04-16T12:17:22.996Z,18.43
2023-04-16T12:20:10.430Z,19.12
2023-04-16T12:22:39.963Z,19.17
2023-04-16T12:25:11.497Z,19.15
2023-04-16T12:27:56.241Z,19.19
2023-04-16T12:30:27.903Z,19.26
2023-04-16T12:33:17.541Z,19.71
2023-04-16T12:35:47.640Z,19.94
2023-04-16T12:38:16.321Z,20.10
2023-04-16T12:40:44.899Z,20.40
2023-04-16T12:43:12.928Z,20.63
2023-04-16T12:45:42.932Z,20.72
2023-04-16T12:48:10.851Z,20.94
2023-04-16T12:50:39.997Z,20.46
2023-04-16T12:53:08.168Z,20.43
2023-04-16T12:55:37.093Z,20.38
2023-04-16T12:58:05.527Z,20.49
2023-04-16T13:00:35.032Z,20.36
2023-04-16T13:03:04.479Z,20.73
2023-04-16T13:05:33.338Z,20.52
2023-04-16T13:08:01.488Z,20.36
2023-04-16T13:10:30.551Z,20.85
2023-04-16T13:12:58.521Z,20.86
2023-04-16T13:15:29.200Z,20.85
2023-04-16T13:17:59.696Z,20.91
2023-04-16T13:20:27.607Z,21.34
2023-04-16T13:22:58.091Z,21.53
2023-04-16T13:25:26.126Z,21.11
2023-04-16T13:27:53.683Z,21.37
2023-04-16T13:30:21.883Z,21.53
2023-04-16T13:32:49.469Z,21.50
2023-04-16T13:35:17.256Z,21.36
2023-04-16T13:37:44.797Z,21.04
2023-04-16T13:40:12.810Z,20.57
2023-04-16T13:42:41.172Z,20.54
2023-04-16T13:45:11.824Z,20.45
2023-04-16T13:47:44.115Z,19.87
2023-04-16T13:50:13.292Z,19.67
2023-04-16T13:52:43.189Z,19.20
2023-04-16T13:55:21.941Z,19.20
2023-04-16T13:57:52.789Z,19.28
2023-04-16T14:00:21.047Z,19.09
2023-04-16T14:02:51.942Z,18.85
2023-04-16T14:05:20.266Z,18.67
2023-04-16T14:07:48.598Z,18.95
2023-04-16T14:10:17.105Z,18.77
2023-04-16T14:12:46.848Z,19.17
2023-04-16T14:15:15.377Z,19.55
2023-04-16T14:17:43.684Z,19.78
2023-04-16T14:20:13.504Z,19.98
2023-04-16T14:22:42.599Z,20.37
2023-04-16T14:25:10.125Z,20.07
2023-04-16T14:27:37.982Z,20.42
2023-04-16T14:30:06.427Z,20.42
2023-04-16T14:32:34.741Z,20.27
2023-04-16T14:35:02.257Z,20.12
2023-04-16T14:37:29.979Z,20.09
2023-04-16T14:39:57.545Z,20.02
2023-04-16T14:42:25.147Z,20.17
2023-04-16T14:44:52.757Z,20.16
2023-04-16T14:47:20.463Z,19.99
2023-04-16T14:49:48.313Z,19.80
2023-04-16T14:52:16.877Z,19.35
2023-04-16T14:54:44.450Z,19.58
2023-04-16T14:57:12.203Z,19.30
2023-04-16T14:59:39.732Z,19.27
2023-04-16T15:02:07.440Z,19.03
2023-04-16T15:04:35.074Z,18.77
2023-04-16T15:07:03.210Z,18.56
2023-04-16T15:09:36.961Z,18.04
2023-04-16T15:12:07.896Z,17.77
2023-04-16T15:14:38.090Z,17.65
2023-04-16T15:17:07.347Z,17.57
2023-04-16T15:19:35.001Z,16.90
2023-04-16T15:22:03.602Z,16.64
2023-04-16T15:24:31.966Z,16.53
2023-04-16T15:26:59.804Z,16.49
2023-04-16T15:29:28.009Z,16.56
2023-04-16T15:31:58.201Z,16.56
2023-04-16T15:34:27.517Z,16.47
2023-04-16T15:36:55.241Z,16.43
2023-04-16T15:39:25.369Z,16.41
2023-04-16T15:42:01.136Z,16.44
2023-04-16T15:44:32.711Z,16.37
2023-04-16T15:47:01.405Z,16.26
2023-04-16T15:49:29.325Z,16.23
2023-04-16T15:51:58.480Z,16.14
2023-04-16T15:54:26.758Z,16.15
2023-04-16T15:56:55.871Z,16.10
2023-04-16T15:59:23.954Z,16.02
2023-04-16T16:01:51.847Z,16.04
2023-04-16T16:04:22.677Z,16.14
2023-04-16T16:06:52.042Z,16.10
2023-04-16T16:09:26.203Z,15.96
2023-04-16T16:11:55.180Z,15.82
2023-04-16T16:14:23.410Z,15.66
2023-04-16T16:16:53.700Z,15.48
2023-04-16T16:19:23.282Z,15.27
2023-04-16T16:21:51.266Z,15.06
2023-04-16T16:24:19.578Z,14.93
2023-04-16T16:26:48.573Z,14.89
2023-04-16T16:29:16.615Z,14.77
2023-04-16T16:31:46.737Z,14.61
2023-04-16T16:34:20.966Z,14.39
2023-04-16T16:36:50.206Z,14.36
2023-04-16T16:39:18.558Z,14.24
2023-04-16T16:41:47.781Z,13.98
2023-04-16T16:44:16.356Z,13.98
2023-04-16T16:46:44.554Z,13.89
2023-04-16T16:49:12.865Z,13.90
2023-04-16T16:51:41.447Z,13.73
2023-04-16T16:54:09.341Z,13.68
2023-04-16T16:56:37.933Z,13.76
2023-04-16T16:59:05.700Z,13.66
2023-04-16T17:01:35.189Z,13.59
2023-04-16T17:04:04.895Z,13.46
2023-04-16T17:06:33.859Z,13.38
2023-04-16T17:09:01.908Z,13.40
2023-04-16T17:11:29.848Z,13.28
2023-04-16T17:13:58.642Z,13.27
2023-04-16T17:16:27.956Z,13.18
2023-04-16T17:18:59.742Z,13.11
2023-04-16T17:21:28.498Z,13.13
2023-04-16T17:23:58.384Z,13.08
2023-04-16T17:26:26.089Z,13.01
2023-04-16T17:28:54.388Z,12.99
2023-04-16T17:31:26.238Z,12.92
2023-04-16T17:33:54.705Z,12.83
2023-04-16T17:36:23.507Z,12.74
2023-04-16T17:38:52.154Z,12.65
2023-04-16T17:41:20.502Z,12.62
2023-04-16T17:43:49.926Z,12.58
2023-04-16T17:46:19.354Z,12.49
2023-04-16T17:48:49.127Z,12.44
2023-04-16T17:51:18.746Z,12.37
2023-04-16T17:53:49.315Z,12.31
2023-04-16T17:56:17.387Z,12.23
2023-04-16T17:58:48.353Z,12.20
2023-04-16T18:01:16.976Z,12.15
2023-04-16T18:03:45.974Z,12.12
2023-04-16T18:06:16.471Z,12.07
2023-04-16T18:08:44.074Z,12.03
2023-04-16T18:11:12.094Z,11.92
2023-04-16T18:13:41.282Z,11.88
2023-04-16T18:16:15.105Z,11.84
2023-04-16T18:18:44.061Z,11.81
2023-04-16T18:21:11.881Z,11.75
2023-04-16T18:23:40.132Z,11.77
2023-04-16T18:26:09.453Z,11.76
2023-04-16T18:28:39.687Z,11.75
2023-04-16T18:31:08.327Z,11.67
2023-04-16T18:33:54.219Z,11.69
2023-04-16T18:36:24.427Z,11.71
2023-04-16T18:39:01.601Z,11.62
2023-04-16T18:41:31.579Z,11.62
2023-04-16T18:44:01.162Z,11.66
2023-04-16T18:46:30.748Z,11.63
2023-04-16T18:49:02.106Z,11.61
2023-04-16T18:51:30.240Z,11.55
2023-04-16T18:53:58.552Z,11.56
2023-04-16T18:56:27.344Z,11.66
2023-04-16T18:58:55.091Z,11.67
2023-04-16T19:01:22.981Z,11.71
2023-04-16T19:03:51.421Z,11.62
2023-04-16T19:06:19.214Z,11.67
2023-04-16T19:08:48.238Z,11.68
2023-04-16T19:11:17.518Z,11.64
2023-04-16T19:13:47.253Z,11.60
2023-04-16T19:16:15.043Z,11.52
2023-04-16T19:18:42.884Z,11.59
2023-04-16T19:21:11.368Z,11.52
2023-04-16T19:23:43.126Z,11.50
2023-04-16T19:26:11.644Z,11.49
2023-04-16T19:28:40.297Z,11.46
2023-04-16T19:31:09.136Z,11.45
2023-04-16T19:33:38.377Z,11.40
2023-04-16T19:36:07.353Z,11.24
2023-04-16T19:38:37.265Z,11.24
2023-04-16T19:41:06.169Z,11.19
2023-04-16T19:43:37.268Z,11.15
2023-04-16T19:46:06.285Z,11.12
2023-04-16T19:48:35.141Z,11.09
2023-04-16T19:51:05.940Z,11.03
2023-04-16T19:53:37.565Z,11.01
2023-04-16T19:56:06.530Z,10.98
2023-04-16T19:58:34.456Z,10.85
2023-04-16T20:01:09.211Z,10.78
2023-04-16T20:03:40.538Z,10.73
2023-04-16T20:06:08.930Z,10.72
2023-04-16T20:08:37.569Z,10.67
2023-04-16T20:11:05.862Z,10.62
2023-04-16T20:13:34.048Z,10.56
2023-04-16T20:16:02.506Z,10.54
2023-04-16T20:18:30.566Z,10.48
2023-04-16T20:20:58.773Z,10.42
2023-04-16T20:23:26.471Z,10.39
2023-04-16T20:25:54.584Z,10.32
2023-04-16T20:28:23.213Z,10.29
2023-04-16T20:30:51.338Z,10.25
2023-04-16T20:33:19.373Z,10.19
2023-04-16T20:35:47.489Z,10.17
2023-04-16T20:38:15.045Z,10.07
2023-04-16T20:40:45.260Z,10.08
2023-04-16T20:43:14.510Z,10.04
2023-04-16T20:45:47.224Z,10.02
2023-04-16T20:48:16.128Z,10.02
2023-04-16T20:50:43.902Z,10.02
2023-04-16T20:53:13.341Z,9.95
2023-04-16T20:55:43.426Z,9.92
2023-04-16T20:58:11.923Z,9.90
2023-04-16T21:00:40.521Z,9.85
2023-04-16T21:03:08.758Z,9.81
2023-04-16T21:05:38.445Z,9.78
2023-04-16T21:08:07.789Z,9.74
2023-04-16T21:10:36.300Z,9.65
2023-04-16T21:13:04.112Z,9.63
2023-04-16T21:15:31.954Z,9.58
2023-04-16T21:17:59.878Z,9.51
2023-04-16T21:20:29.927Z,9.46
2023-04-16T21:22:58.822Z,9.43
2023-04-16T21:25:28.167Z,9.38
2023-04-16T21:27:56.278Z,9.37
2023-04-16T21:30:24.066Z,9.29
2023-04-16T21:32:55.013Z,9.23
2023-04-16T21:35:22.882Z,9.24
2023-04-16T21:37:51.093Z,9.21
2023-04-16T21:40:20.662Z,9.11
2023-04-16T21:42:50.181Z,9.12
2023-04-16T21:45:18.930Z,9.12
2023-04-16T21:47:46.617Z,9.02
2023-04-16T21:50:14.944Z,8.98
2023-04-16T21:52:47.409Z,8.91
2023-04-16T21:55:15.231Z,8.94
2023-04-16T21:57:43.072Z,8.91
2023-04-16T22:00:15.125Z,8.85
2023-04-16T22:03:02.693Z,8.81
2023-04-16T22:05:33.527Z,8.90
2023-04-16T22:08:10.853Z,8.83
2023-04-16T22:10:49.941Z,8.78
2023-04-16T22:13:18.241Z,8.77
2023-04-16T22:15:46.629Z,8.76
2023-04-16T22:18:14.541Z,8.85
2023-04-16T22:20:42.486Z,8.74
2023-04-16T22:23:12.028Z,8.78
2023-04-16T22:25:39.930Z,8.73
2023-04-16T22:28:07.778Z,8.77
2023-04-16T22:30:36.588Z,8.68
2023-04-16T22:33:04.359Z,8.69
2023-04-16T22:35:32.199Z,8.73
2023-04-16T22:38:02.181Z,8.73
2023-04-16T22:40:33.327Z,8.64
2023-04-16T22:43:01.724Z,8.62
2023-04-16T22:45:29.651Z,8.53
2023-04-16T22:47:57.779Z,8.53
2023-04-16T22:50:25.907Z,8.49
2023-04-16T22:52:54.200Z,8.48
2023-04-16T22:55:22.084Z,8.41
2023-04-16T22:57:49.856Z,8.44
2023-04-16T23:00:18.165Z,8.49
2023-04-16T23:02:46.151Z,8.38
2023-04-16T23:05:13.865Z,8.34
2023-04-16T23:07:43.438Z,8.33
2023-04-16T23:10:11.633Z,8.33
2023-04-16T23:12:40.286Z,8.12
2023-04-16T23:15:09.089Z,8.28
2023-04-16T23:17:38.578Z,8.29
2023-04-16T23:20:10.675Z,8.24
2023-04-16T23:22:41.680Z,8.19
2023-04-16T23:25:10.045Z,8.16
2023-04-16T23:27:38.509Z,8.08
2023-04-16T23:30:07.058Z,7.97
2023-04-16T23:32:36.151Z,7.96
2023-04-16T23:35:05.356Z,7.83
2023-04-16T23:37:33.640Z,7.88
2023-04-16T23:40:01.177Z,7.90
2023-04-16T23:42:30.129Z,7.88
2023-04-16T23:44:58.093Z,7.93
2023-04-16T23:47:26.607Z,7.98
2023-04-16T23:49:54.684Z,7.90
2023-04-16T23:52:24.100Z,7.79
2023-04-16T23:54:53.314Z,7.79
2023-04-16T23:57:20.997Z,7.77
2023-04-16T23:59:48.796Z,7.76
